TAR282 DTTA-LFBO
Flight info
| Callsign | TAR282 |
|---|---|
| Flight time | N/A |
| Altitude | 36000 |
| Route | TOBIB3C TOBIB UA725 OSMAR DCT LUNAM DCT ALG DCT GINOX DCT OKSER DCT AMFAC DCT FJR/N0353F180 G393 AFRIC |
| Aircraft | A320/M-SDE3FGHIRWY/LB1 |
Departure
| Time | 2026-05-04 17:34 |
|---|---|
| Airport | Tunis Carthage International Airport (DTTA) |
Arrival
| Time | N/A |
|---|---|
| Airport | Toulouse-Blagnac Airport (LFBO) |
| Time | Latitude | Longitude | Altitude | Speed | Heading |
|---|---|---|---|---|---|
| 2026-05-04 17:12 | 36.84603 | 10.21998 | 31 ft | 0 kts | 254° |
| 2026-05-04 17:24 | 36.84613 | 10.22068 | 30 ft | 4 kts | 281° |
| 2026-05-04 17:25 | 36.84605 | 10.22090 | 30 ft | 4 kts | 354° |
| 2026-05-04 17:25 | 36.84554 | 10.22082 | 30 ft | 4 kts | 6° |
| 2026-05-04 17:26 | 36.84541 | 10.22081 | 30 ft | 4 kts | 5° |
| 2026-05-04 17:26 | 36.84475 | 10.22054 | 30 ft | 4 kts | 51° |
| 2026-05-04 17:27 | 36.84464 | 10.22034 | 30 ft | 0 kts | 58° |
| 2026-05-04 17:29 | 36.84502 | 10.22150 | 30 ft | 14 kts | 95° |
| 2026-05-04 17:30 | 36.84911 | 10.22372 | 31 ft | 26 kts | 13° |
| 2026-05-04 17:31 | 36.85099 | 10.22134 | 31 ft | 14 kts | 351° |
| 2026-05-04 17:31 | 36.85259 | 10.22275 | 34 ft | 0 kts | 112° |
| 2026-05-04 17:33 | 36.85249 | 10.22304 | 34 ft | 20 kts | 112° |
| 2026-05-04 17:33 | 36.85097 | 10.22765 | 33 ft | 91 kts | 111° |
| 2026-05-04 17:34 | 36.84036 | 10.25955 | 1263 ft | 141 kts | 116° |
| 2026-05-04 17:34 | 36.83655 | 10.27101 | 1861 ft | 146 kts | 116° |
| 2026-05-04 17:35 | 36.85861 | 10.29795 | 2693 ft | 222 kts | 349° |
| 2026-05-04 17:35 | 36.89105 | 10.28600 | 3397 ft | 265 kts | 339° |
| 2026-05-04 17:35 | 36.90870 | 10.27833 | 4161 ft | 272 kts | 340° |
| 2026-05-04 17:36 | 36.92681 | 10.27079 | 5041 ft | 275 kts | 341° |
| 2026-05-04 17:36 | 36.94520 | 10.26354 | 5915 ft | 279 kts | 341° |
| 2026-05-04 17:36 | 36.96387 | 10.25650 | 6786 ft | 281 kts | 342° |
| 2026-05-04 17:36 | 36.98245 | 10.24969 | 7596 ft | 283 kts | 341° |
| 2026-05-04 17:37 | 37.00168 | 10.24278 | 8457 ft | 285 kts | 342° |
| 2026-05-04 17:37 | 37.02082 | 10.23597 | 9307 ft | 287 kts | 341° |
| 2026-05-04 17:37 | 37.03984 | 10.22921 | 10106 ft | 290 kts | 341° |
| 2026-05-04 17:37 | 37.05974 | 10.22209 | 10503 ft | 308 kts | 341° |
| 2026-05-04 17:38 | 37.08141 | 10.21431 | 10742 ft | 330 kts | 341° |
| 2026-05-04 17:38 | 37.10385 | 10.20625 | 11300 ft | 339 kts | 341° |
| 2026-05-04 17:38 | 37.12670 | 10.19806 | 12001 ft | 343 kts | 341° |
| 2026-05-04 17:38 | 37.14977 | 10.18980 | 12718 ft | 346 kts | 341° |
| 2026-05-04 17:39 | 37.19656 | 10.17301 | 14120 ft | 353 kts | 340° |
| 2026-05-04 17:39 | 37.21998 | 10.16461 | 14756 ft | 355 kts | 340° |
| 2026-05-04 17:39 | 37.24379 | 10.15607 | 15384 ft | 358 kts | 340° |
| 2026-05-04 17:40 | 37.26781 | 10.14743 | 16018 ft | 360 kts | 340° |
| 2026-05-04 17:40 | 37.29199 | 10.13871 | 16657 ft | 363 kts | 340° |
| 2026-05-04 17:40 | 37.31633 | 10.12994 | 17275 ft | 365 kts | 340° |
| 2026-05-04 17:40 | 37.34087 | 10.12110 | 17883 ft | 368 kts | 340° |
| 2026-05-04 17:41 | 37.36551 | 10.11219 | 18459 ft | 370 kts | 340° |
| 2026-05-04 17:41 | 37.39040 | 10.10317 | 18971 ft | 373 kts | 340° |
| 2026-05-04 17:41 | 37.41546 | 10.09408 | 19464 ft | 376 kts | 340° |
| 2026-05-04 17:41 | 37.44074 | 10.08495 | 19952 ft | 380 kts | 340° |
| 2026-05-04 17:42 | 37.46620 | 10.07576 | 20433 ft | 383 kts | 340° |
| 2026-05-04 17:42 | 37.49189 | 10.06648 | 20911 ft | 385 kts | 340° |
| 2026-05-04 17:42 | 37.51778 | 10.05714 | 21378 ft | 388 kts | 340° |
| 2026-05-04 17:42 | 37.54387 | 10.04769 | 21850 ft | 391 kts | 340° |